LFGX weather

Champagnole Crotenay Airport
Verdun, Franche-Comté, France

Public forecast

Using degrees Celsius for public forecast. Weather courtesy of forecast.io.

METAR (pilot weather report)

Closest report is Dole-Tavaux Airport, 23.0 nm (42.6 km) NW. Retrieved 2019/07/21 18:30 UTC (0 seconds ago):

LFGJ 211830Z AUTO 16004KT CAVOK 28/16 Q1021

TAF (pilot weather forecast)

Closest forecast is Geneva Cointrin International Airport, 33.8 nm (62.5 km) SSE. Retrieved 2019/07/21 18:33 UTC (0 seconds ago):

TAF TAF LSGG 211725Z 2118/2224 23007KT 9999 FEW060 TX32/2215Z TN16/2204Z BECMG 2118/2120 VRB03KT CAVOK BECMG 2210/2212 05007KT